createdAt,value
2018-06-27T19:41:27.876Z,1.77
2018-06-27T19:43:56.476Z,1.80
2018-06-27T19:46:25.518Z,1.90
2018-06-27T19:48:54.821Z,1.80
2018-06-27T19:51:24.537Z,1.90
2018-06-27T19:53:53.542Z,1.60
2018-06-27T19:56:23.084Z,1.80
2018-06-27T19:58:52.188Z,1.90
2018-06-27T20:01:21.319Z,2.00
2018-06-27T20:03:51.081Z,1.90
2018-06-27T20:06:20.068Z,1.87
2018-06-27T20:08:49.547Z,1.90
2018-06-27T20:11:19.329Z,1.83
2018-06-27T20:13:48.995Z,1.83
2018-06-27T20:16:18.173Z,2.17
2018-06-27T20:18:47.191Z,1.87
2018-06-27T20:21:15.842Z,2.13
2018-06-27T20:23:44.557Z,1.90
2018-06-27T20:26:14.434Z,2.10
2018-06-27T20:28:43.675Z,1.93
2018-06-27T20:31:12.458Z,1.87
2018-06-27T20:33:41.610Z,2.20
2018-06-27T20:36:10.457Z,2.10
2018-06-27T20:38:39.197Z,2.20
2018-06-27T20:41:08.510Z,1.87
2018-06-27T20:43:37.620Z,1.83
2018-06-27T20:46:06.941Z,2.20
2018-06-27T20:48:36.101Z,2.00
2018-06-27T20:51:04.961Z,2.13
2018-06-27T20:53:34.463Z,2.10
2018-06-27T20:56:03.443Z,2.20
2018-06-27T20:58:32.547Z,2.30
2018-06-27T21:01:01.448Z,1.90
2018-06-27T21:03:30.647Z,2.37
2018-06-27T21:05:59.366Z,2.40
2018-06-27T21:08:28.369Z,2.40
2018-06-27T21:10:57.013Z,2.10
2018-06-27T21:13:26.197Z,2.50
2018-06-27T21:15:55.185Z,2.30
2018-06-27T21:18:24.522Z,2.33
2018-06-27T21:20:53.224Z,2.50
2018-06-27T21:23:22.166Z,2.70
2018-06-27T21:25:51.194Z,2.20
2018-06-27T21:28:19.933Z,2.40
2018-06-27T21:30:49.079Z,2.07
2018-06-27T21:33:17.876Z,2.60
2018-06-27T21:35:46.554Z,2.60
2018-06-27T21:38:15.579Z,2.47
2018-06-27T21:40:45.589Z,2.50
2018-06-27T21:43:14.298Z,2.70
2018-06-27T21:45:43.319Z,2.50
2018-06-27T21:48:12.062Z,2.80
2018-06-27T21:50:40.894Z,2.60
2018-06-27T21:53:09.961Z,2.43
2018-06-27T21:55:38.614Z,2.60
2018-06-27T21:58:07.365Z,2.70
2018-06-27T22:00:36.059Z,2.87
2018-06-27T22:03:04.882Z,2.70
2018-06-27T22:05:33.788Z,2.77
2018-06-27T22:08:02.972Z,2.80
2018-06-27T22:10:31.697Z,2.73
2018-06-27T22:13:00.473Z,3.17
2018-06-27T22:15:29.096Z,2.77
2018-06-27T22:17:58.316Z,2.93
2018-06-27T22:20:27.309Z,3.10
2018-06-27T22:22:56.702Z,2.73
2018-06-27T22:25:25.732Z,3.10
2018-06-27T22:27:54.738Z,3.07
2018-06-27T22:30:23.936Z,3.03
2018-06-27T22:32:52.615Z,3.33
2018-06-27T22:35:21.627Z,3.20
2018-06-27T22:37:50.693Z,3.20
2018-06-27T22:40:19.425Z,3.10
2018-06-27T22:42:48.365Z,3.43
2018-06-27T22:45:16.939Z,3.23
2018-06-27T22:47:46.018Z,3.10
2018-06-27T22:50:14.960Z,3.40
2018-06-27T22:52:44.307Z,3.33
2018-06-27T22:55:13.544Z,3.33
2018-06-27T22:57:42.306Z,3.30
2018-06-27T23:00:11.063Z,3.33
2018-06-27T23:02:39.844Z,3.70
2018-06-27T23:05:08.923Z,3.70
2018-06-27T23:07:37.944Z,3.90
2018-06-27T23:10:07.273Z,3.47
2018-06-27T23:12:35.828Z,3.70
2018-06-27T23:15:04.616Z,3.97
2018-06-27T23:17:33.550Z,4.10
2018-06-27T23:20:02.351Z,3.80
2018-06-27T23:22:42.231Z,4.00
2018-06-27T23:25:11.792Z,3.83
2018-06-27T23:27:40.692Z,3.87
2018-06-27T23:30:10.033Z,4.03
2018-06-27T23:32:39.601Z,4.20
2018-06-27T23:35:09.137Z,4.37
2018-06-27T23:37:38.694Z,4.47
2018-06-27T23:40:07.717Z,4.10
2018-06-27T23:42:36.421Z,4.60
2018-06-27T23:45:06.517Z,5.00
2018-06-27T23:47:37.892Z,4.70
2018-06-27T23:50:06.480Z,4.60
2018-06-27T23:52:36.102Z,4.43
2018-06-27T23:55:06.888Z,4.53
2018-06-27T23:57:37.001Z,5.00
